KVCT/VCT METAR and TAF weather

Enter ICAO airport designator
Station Type Date Time Source
KVCT METAR 2020/12/05 04:51 UTC NOAA

KVCT 050451Z AUTO 00000KT 10SM CLR 04/03 A3026 RMK AO2 SLP246 T00390028


Station Type Date Time Source
KVCT Decoded METAR 2020/12/05 04:51 UTC NOAA

VICTORIA REGIONAL AIRPORT, TX, United States (KVCT) 28-52N 96-56W 31M
Dec 04, 2020 - 11:51 PM EST / 2020.12.05 0451 UTC
Wind: Calm:0
Visibility: 10 mile(s):0
Sky conditions: clear
Temperature: 39.0 F (3.9 C)
Dew Point: 37.0 F (2.8 C)
Relative Humidity: 92%
Pressure (altimeter): 30.26 in. Hg (1024 hPa)
ob: KVCT 050451Z AUTO 00000KT 10SM CLR 04/03 A3026 RMK AO2 SLP246 T00390028
cycle: 5

Station Type Date Time Source
KVCT TAF 2020/12/05 06:24 UTC NOAA

TAF KVCT 050523Z 0506/0606 VRB03KT P6SM FEW100
FM051000 01006KT P6SM SCT040 OVC050
FM051700 35008KT P6SM -SHRA BKN028 OVC040
FM060400 34006KT P6SM VCSH BKN035 OVC100

Example: see airport list